CheckWX is a tool to help pilots better visualize weather data.  It is not intended as a substitute for an official pre-flight weather briefing.

17:43:59 UTC

FQTT TAF
Chingozi Airport
Tete, Mozambique
TAF FQTT 241600Z 2418/2518 12004KT 9999 SCT020 SCT100 TX32/2513Z TN22/2503Z BECMG 2508/2510 18010KT BECMG 2512/2514 11012KT

Mar-24@
18:00 UTC

Mar-24 @ 18:00 UTC

Mar-25@
08:00 UTC

Mar-25 @ 08:00 UTC

TAF FQTT 241600Z 2418/2518 12004KT 9999 SCT020 SCT100 TX32/2513Z TN22/2503Z
Wind
  • 120° at 4 KTS
Cloud Levels
  • Scattered at 2,000' AGL
  • Scattered at 10,000' AGL

Mar-25@
08:00 UTC

Mar-25 @ 08:00 UTC

Mar-25@
12:00 UTC

Mar-25 @ 12:00 UTC

BECMG 2508/2510 18010KT

Becoming

Becoming Conditions expected by Mon, Mar 25, 2019 @ 10:00 UTC

Wind
  • 180° at 10 KTS
Cloud Levels
  • Scattered at 2,000' AGL
  • Scattered at 10,000' AGL

Mar-25@
12:00 UTC

Mar-25 @ 12:00 UTC

Mar-25@
18:00 UTC

Mar-25 @ 18:00 UTC

BECMG 2512/2514 11012KT

Becoming

Becoming Conditions expected by Mon, Mar 25, 2019 @ 14:00 UTC

Wind
  • 110° at 12 KTS
Cloud Levels
  • Scattered at 2,000' AGL
  • Scattered at 10,000' AGL